sensor_id;sensor_type;location;lat;lon;timestamp;P1;durP1;ratioP1;P2;durP2;ratioP2
14766;SDS011;7475;53.558;9.970;2022-11-30T00:01:49;58.25;;;33.58;;
14766;SDS011;7475;53.558;9.970;2022-11-30T00:04:14;58.03;;;32.17;;
14766;SDS011;7475;53.558;9.970;2022-11-30T00:06:42;60.07;;;32.97;;
14766;SDS011;7475;53.558;9.970;2022-11-30T00:09:09;61.57;;;33.03;;
14766;SDS011;7475;53.558;9.970;2022-11-30T00:11:35;60.07;;;35.73;;
14766;SDS011;7475;53.558;9.970;2022-11-30T00:14:00;68.40;;;40.28;;
14766;SDS011;7475;53.558;9.970;2022-11-30T00:16:25;64.27;;;34.17;;
14766;SDS011;7475;53.558;9.970;2022-11-30T00:18:51;57.17;;;33.13;;
14766;SDS011;7475;53.558;9.970;2022-11-30T00:21:16;64.90;;;35.17;;
14766;SDS011;7475;53.558;9.970;2022-11-30T00:23:43;60.37;;;34.23;;
14766;SDS011;7475;53.558;9.970;2022-11-30T00:26:11;58.30;;;31.87;;
14766;SDS011;7475;53.558;9.970;2022-11-30T00:28:38;58.70;;;31.70;;
14766;SDS011;7475;53.558;9.970;2022-11-30T00:31:05;56.47;;;33.50;;
14766;SDS011;7475;53.558;9.970;2022-11-30T00:33:33;61.03;;;33.00;;
14766;SDS011;7475;53.558;9.970;2022-11-30T00:36:32;56.47;;;31.83;;
14766;SDS011;7475;53.558;9.970;2022-11-30T00:38:51;57.77;;;31.50;;
14766;SDS011;7475;53.558;9.970;2022-11-30T00:41:17;55.13;;;33.77;;
14766;SDS011;7475;53.558;9.970;2022-11-30T00:43:43;59.67;;;34.73;;
14766;SDS011;7475;53.558;9.970;2022-11-30T00:46:09;57.37;;;31.83;;
14766;SDS011;7475;53.558;9.970;2022-11-30T00:48:35;58.30;;;33.60;;
14766;SDS011;7475;53.558;9.970;2022-11-30T00:51:01;57.67;;;32.93;;
14766;SDS011;7475;53.558;9.970;2022-11-30T00:53:27;56.77;;;32.67;;
14766;SDS011;7475;53.558;9.970;2022-11-30T00:55:53;57.43;;;32.10;;
14766;SDS011;7475;53.558;9.970;2022-11-30T00:58:18;60.45;;;32.35;;
14766;SDS011;7475;53.558;9.970;2022-11-30T01:00:44;56.43;;;32.20;;
14766;SDS011;7475;53.558;9.970;2022-11-30T01:03:10;53.57;;;30.43;;
14766;SDS011;7475;53.558;9.970;2022-11-30T01:05:36;54.42;;;30.95;;
14766;SDS011;7475;53.558;9.970;2022-11-30T01:08:02;57.10;;;31.83;;
14766;SDS011;7475;53.558;9.970;2022-11-30T01:10:29;61.03;;;32.40;;
14766;SDS011;7475;53.558;9.970;2022-11-30T01:12:54;55.67;;;31.03;;
14766;SDS011;7475;53.558;9.970;2022-11-30T01:15:20;53.57;;;31.97;;
14766;SDS011;7475;53.558;9.970;2022-11-30T01:17:45;54.57;;;31.10;;
14766;SDS011;7475;53.558;9.970;2022-11-30T01:20:10;57.30;;;32.53;;
14766;SDS011;7475;53.558;9.970;2022-11-30T01:22:36;54.77;;;30.93;;
14766;SDS011;7475;53.558;9.970;2022-11-30T01:25:02;51.00;;;30.20;;
14766;SDS011;7475;53.558;9.970;2022-11-30T01:27:27;57.83;;;34.60;;
14766;SDS011;7475;53.558;9.970;2022-11-30T01:29:53;56.53;;;32.53;;
14766;SDS011;7475;53.558;9.970;2022-11-30T01:32:18;54.07;;;31.00;;
14766;SDS011;7475;53.558;9.970;2022-11-30T01:34:43;52.90;;;30.83;;
14766;SDS011;7475;53.558;9.970;2022-11-30T01:37:08;53.20;;;29.50;;
14766;SDS011;7475;53.558;9.970;2022-11-30T01:39:34;57.90;;;31.70;;
14766;SDS011;7475;53.558;9.970;2022-11-30T01:41:59;57.93;;;31.53;;
14766;SDS011;7475;53.558;9.970;2022-11-30T01:47:02;55.20;;;30.90;;
14766;SDS011;7475;53.558;9.970;2022-11-30T01:49:43;57.10;;;32.37;;
14766;SDS011;7475;53.558;9.970;2022-11-30T01:52:19;62.33;;;32.13;;
14766;SDS011;7475;53.558;9.970;2022-11-30T01:54:51;56.57;;;32.27;;
14766;SDS011;7475;53.558;9.970;2022-11-30T01:57:21;59.45;;;33.10;;
14766;SDS011;7475;53.558;9.970;2022-11-30T01:59:52;55.10;;;31.70;;
14766;SDS011;7475;53.558;9.970;2022-11-30T02:02:38;59.73;;;32.07;;
14766;SDS011;7475;53.558;9.970;2022-11-30T02:05:04;57.60;;;32.43;;
14766;SDS011;7475;53.558;9.970;2022-11-30T02:07:31;65.07;;;32.03;;
14766;SDS011;7475;53.558;9.970;2022-11-30T02:09:56;58.22;;;34.00;;
14766;SDS011;7475;53.558;9.970;2022-11-30T02:12:32;59.73;;;33.90;;
14766;SDS011;7475;53.558;9.970;2022-11-30T02:15:05;62.57;;;33.00;;
14766;SDS011;7475;53.558;9.970;2022-11-30T02:23:39;64.10;;;34.60;;
14766;SDS011;7475;53.558;9.970;2022-11-30T02:28:58;63.33;;;35.57;;
14766;SDS011;7475;53.558;9.970;2022-11-30T02:31:49;65.20;;;34.30;;
14766;SDS011;7475;53.558;9.970;2022-11-30T02:34:22;65.63;;;35.27;;
14766;SDS011;7475;53.558;9.970;2022-11-30T02:36:51;62.00;;;34.47;;
14766;SDS011;7475;53.558;9.970;2022-11-30T02:39:20;65.70;;;33.63;;
14766;SDS011;7475;53.558;9.970;2022-11-30T02:41:46;64.30;;;34.53;;
14766;SDS011;7475;53.558;9.970;2022-11-30T02:44:11;64.80;;;36.78;;
14766;SDS011;7475;53.558;9.970;2022-11-30T02:46:44;76.23;;;38.47;;
14766;SDS011;7475;53.558;9.970;2022-11-30T02:49:12;65.87;;;35.87;;
14766;SDS011;7475;53.558;9.970;2022-11-30T02:51:48;55.87;;;32.93;;
14766;SDS011;7475;53.558;9.970;2022-11-30T02:54:16;62.10;;;34.67;;
14766;SDS011;7475;53.558;9.970;2022-11-30T02:56:42;67.40;;;34.80;;
14766;SDS011;7475;53.558;9.970;2022-11-30T02:59:08;60.77;;;35.80;;
14766;SDS011;7475;53.558;9.970;2022-11-30T03:01:33;63.90;;;34.73;;
14766;SDS011;7475;53.558;9.970;2022-11-30T03:03:58;62.40;;;35.03;;
14766;SDS011;7475;53.558;9.970;2022-11-30T03:06:24;61.30;;;34.60;;
14766;SDS011;7475;53.558;9.970;2022-11-30T03:08:49;65.73;;;35.03;;
14766;SDS011;7475;53.558;9.970;2022-11-30T03:11:14;61.97;;;34.23;;
14766;SDS011;7475;53.558;9.970;2022-11-30T03:13:39;64.13;;;34.53;;
14766;SDS011;7475;53.558;9.970;2022-11-30T03:16:08;66.33;;;36.20;;
14766;SDS011;7475;53.558;9.970;2022-11-30T03:18:35;66.00;;;35.17;;
14766;SDS011;7475;53.558;9.970;2022-11-30T03:21:03;62.70;;;34.80;;
14766;SDS011;7475;53.558;9.970;2022-11-30T03:23:30;65.97;;;35.43;;
14766;SDS011;7475;53.558;9.970;2022-11-30T03:25:56;62.50;;;34.70;;
14766;SDS011;7475;53.558;9.970;2022-11-30T03:28:22;61.73;;;33.67;;
14766;SDS011;7475;53.558;9.970;2022-11-30T03:30:48;68.07;;;35.47;;
14766;SDS011;7475;53.558;9.970;2022-11-30T03:33:13;59.60;;;33.50;;
14766;SDS011;7475;53.558;9.970;2022-11-30T03:35:39;66.60;;;35.07;;
14766;SDS011;7475;53.558;9.970;2022-11-30T03:38:04;65.73;;;35.70;;
14766;SDS011;7475;53.558;9.970;2022-11-30T03:40:30;65.17;;;34.03;;
14766;SDS011;7475;53.558;9.970;2022-11-30T03:42:55;66.43;;;34.87;;
14766;SDS011;7475;53.558;9.970;2022-11-30T03:45:20;63.43;;;34.70;;
14766;SDS011;7475;53.558;9.970;2022-11-30T03:47:46;61.83;;;33.70;;
14766;SDS011;7475;53.558;9.970;2022-11-30T03:50:11;68.23;;;36.20;;
14766;SDS011;7475;53.558;9.970;2022-11-30T03:52:36;73.43;;;37.10;;
14766;SDS011;7475;53.558;9.970;2022-11-30T03:55:02;65.13;;;35.57;;
14766;SDS011;7475;53.558;9.970;2022-11-30T03:57:27;68.47;;;34.60;;
14766;SDS011;7475;53.558;9.970;2022-11-30T03:59:52;67.13;;;34.60;;
14766;SDS011;7475;53.558;9.970;2022-11-30T04:02:18;67.63;;;34.83;;
14766;SDS011;7475;53.558;9.970;2022-11-30T04:04:43;75.27;;;36.03;;
14766;SDS011;7475;53.558;9.970;2022-11-30T04:07:08;72.63;;;37.20;;
14766;SDS011;7475;53.558;9.970;2022-11-30T04:09:33;70.80;;;36.80;;
14766;SDS011;7475;53.558;9.970;2022-11-30T04:11:59;67.67;;;35.53;;
14766;SDS011;7475;53.558;9.970;2022-11-30T04:14:24;69.17;;;36.30;;
14766;SDS011;7475;53.558;9.970;2022-11-30T04:16:49;65.63;;;35.80;;
14766;SDS011;7475;53.558;9.970;2022-11-30T04:19:15;69.13;;;34.03;;
14766;SDS011;7475;53.558;9.970;2022-11-30T04:21:40;70.63;;;34.90;;
14766;SDS011;7475;53.558;9.970;2022-11-30T04:24:05;65.93;;;34.63;;
14766;SDS011;7475;53.558;9.970;2022-11-30T04:26:31;67.17;;;35.27;;
14766;SDS011;7475;53.558;9.970;2022-11-30T04:28:56;71.77;;;35.50;;
14766;SDS011;7475;53.558;9.970;2022-11-30T04:31:22;67.83;;;34.87;;
14766;SDS011;7475;53.558;9.970;2022-11-30T04:33:48;70.13;;;36.43;;
14766;SDS011;7475;53.558;9.970;2022-11-30T04:36:18;70.07;;;36.40;;
14766;SDS011;7475;53.558;9.970;2022-11-30T04:38:44;69.67;;;34.33;;
14766;SDS011;7475;53.558;9.970;2022-11-30T04:41:10;72.63;;;35.30;;
14766;SDS011;7475;53.558;9.970;2022-11-30T04:43:36;69.27;;;35.00;;
14766;SDS011;7475;53.558;9.970;2022-11-30T04:46:02;67.17;;;34.73;;
14766;SDS011;7475;53.558;9.970;2022-11-30T04:48:28;62.53;;;33.50;;
14766;SDS011;7475;53.558;9.970;2022-11-30T04:50:58;73.37;;;35.10;;
14766;SDS011;7475;53.558;9.970;2022-11-30T04:53:27;73.23;;;34.50;;
14766;SDS011;7475;53.558;9.970;2022-11-30T04:55:53;68.70;;;34.30;;
14766;SDS011;7475;53.558;9.970;2022-11-30T04:58:18;63.73;;;33.17;;
14766;SDS011;7475;53.558;9.970;2022-11-30T05:00:43;69.67;;;34.17;;
14766;SDS011;7475;53.558;9.970;2022-11-30T05:03:09;61.47;;;32.53;;
14766;SDS011;7475;53.558;9.970;2022-11-30T05:05:34;69.53;;;34.87;;
14766;SDS011;7475;53.558;9.970;2022-11-30T05:07:59;63.03;;;32.83;;
14766;SDS011;7475;53.558;9.970;2022-11-30T05:10:25;62.60;;;32.67;;
14766;SDS011;7475;53.558;9.970;2022-11-30T05:12:52;71.10;;;33.57;;
14766;SDS011;7475;53.558;9.970;2022-11-30T05:15:18;67.50;;;33.53;;
14766;SDS011;7475;53.558;9.970;2022-11-30T05:17:43;65.53;;;31.70;;
14766;SDS011;7475;53.558;9.970;2022-11-30T05:20:08;66.90;;;32.50;;
14766;SDS011;7475;53.558;9.970;2022-11-30T05:22:34;65.93;;;31.90;;
14766;SDS011;7475;53.558;9.970;2022-11-30T05:25:00;64.63;;;31.63;;
14766;SDS011;7475;53.558;9.970;2022-11-30T05:27:26;64.93;;;33.40;;
14766;SDS011;7475;53.558;9.970;2022-11-30T05:29:51;62.20;;;32.00;;
14766;SDS011;7475;53.558;9.970;2022-11-30T05:32:16;64.83;;;32.73;;
14766;SDS011;7475;53.558;9.970;2022-11-30T05:34:42;64.93;;;31.97;;
14766;SDS011;7475;53.558;9.970;2022-11-30T05:37:07;65.10;;;32.10;;
14766;SDS011;7475;53.558;9.970;2022-11-30T05:39:33;62.67;;;32.53;;
14766;SDS011;7475;53.558;9.970;2022-11-30T05:41:58;64.57;;;32.57;;
14766;SDS011;7475;53.558;9.970;2022-11-30T05:44:23;68.83;;;32.87;;
14766;SDS011;7475;53.558;9.970;2022-11-30T05:46:49;67.57;;;33.83;;
14766;SDS011;7475;53.558;9.970;2022-11-30T05:49:14;65.57;;;31.80;;
14766;SDS011;7475;53.558;9.970;2022-11-30T05:51:39;66.20;;;32.73;;
14766;SDS011;7475;53.558;9.970;2022-11-30T05:54:05;63.83;;;31.33;;
14766;SDS011;7475;53.558;9.970;2022-11-30T05:56:30;65.27;;;31.03;;
14766;SDS011;7475;53.558;9.970;2022-11-30T05:58:55;62.05;;;29.95;;
14766;SDS011;7475;53.558;9.970;2022-11-30T06:01:22;65.63;;;31.63;;
14766;SDS011;7475;53.558;9.970;2022-11-30T06:03:49;69.13;;;32.83;;
14766;SDS011;7475;53.558;9.970;2022-11-30T06:06:14;63.80;;;32.83;;
14766;SDS011;7475;53.558;9.970;2022-11-30T06:08:40;69.53;;;34.57;;
14766;SDS011;7475;53.558;9.970;2022-11-30T06:11:06;62.53;;;31.55;;
14766;SDS011;7475;53.558;9.970;2022-11-30T06:13:31;61.42;;;30.23;;
14766;SDS011;7475;53.558;9.970;2022-11-30T06:15:58;67.85;;;37.20;;
14766;SDS011;7475;53.558;9.970;2022-11-30T06:18:24;63.17;;;31.33;;
14766;SDS011;7475;53.558;9.970;2022-11-30T06:20:50;58.20;;;30.17;;
14766;SDS011;7475;53.558;9.970;2022-11-30T06:23:15;53.50;;;28.77;;
14766;SDS011;7475;53.558;9.970;2022-11-30T06:25:40;63.90;;;30.80;;
14766;SDS011;7475;53.558;9.970;2022-11-30T06:28:09;64.53;;;33.33;;
14766;SDS011;7475;53.558;9.970;2022-11-30T06:30:35;67.47;;;33.23;;
14766;SDS011;7475;53.558;9.970;2022-11-30T06:33:00;72.23;;;34.10;;
14766;SDS011;7475;53.558;9.970;2022-11-30T06:35:25;81.28;;;34.42;;
14766;SDS011;7475;53.558;9.970;2022-11-30T06:37:51;81.83;;;34.60;;
14766;SDS011;7475;53.558;9.970;2022-11-30T06:40:16;78.47;;;35.50;;
14766;SDS011;7475;53.558;9.970;2022-11-30T06:42:44;78.53;;;33.05;;
14766;SDS011;7475;53.558;9.970;2022-11-30T06:45:09;68.23;;;33.53;;
14766;SDS011;7475;53.558;9.970;2022-11-30T06:47:34;64.07;;;31.92;;
14766;SDS011;7475;53.558;9.970;2022-11-30T06:50:00;71.90;;;34.03;;
14766;SDS011;7475;53.558;9.970;2022-11-30T06:52:25;71.57;;;33.60;;
14766;SDS011;7475;53.558;9.970;2022-11-30T06:54:50;72.87;;;34.53;;
14766;SDS011;7475;53.558;9.970;2022-11-30T06:57:16;74.03;;;36.23;;
14766;SDS011;7475;53.558;9.970;2022-11-30T06:59:41;72.70;;;34.27;;
14766;SDS011;7475;53.558;9.970;2022-11-30T07:02:11;76.93;;;34.73;;
14766;SDS011;7475;53.558;9.970;2022-11-30T07:04:37;66.95;;;32.90;;
14766;SDS011;7475;53.558;9.970;2022-11-30T07:07:03;76.10;;;34.73;;
14766;SDS011;7475;53.558;9.970;2022-11-30T07:09:29;69.47;;;34.33;;
14766;SDS011;7475;53.558;9.970;2022-11-30T07:11:56;73.63;;;35.37;;
14766;SDS011;7475;53.558;9.970;2022-11-30T07:14:21;73.77;;;35.43;;
14766;SDS011;7475;53.558;9.970;2022-11-30T07:16:47;76.57;;;34.70;;
14766;SDS011;7475;53.558;9.970;2022-11-30T07:19:12;77.35;;;33.75;;
14766;SDS011;7475;53.558;9.970;2022-11-30T07:21:37;74.10;;;34.70;;
14766;SDS011;7475;53.558;9.970;2022-11-30T07:24:03;114.03;;;64.90;;
14766;SDS011;7475;53.558;9.970;2022-11-30T07:26:47;69.07;;;31.60;;
14766;SDS011;7475;53.558;9.970;2022-11-30T07:29:12;66.47;;;31.80;;
14766;SDS011;7475;53.558;9.970;2022-11-30T07:31:38;63.93;;;32.73;;
14766;SDS011;7475;53.558;9.970;2022-11-30T07:34:04;63.27;;;31.93;;
14766;SDS011;7475;53.558;9.970;2022-11-30T07:36:32;65.47;;;29.47;;
14766;SDS011;7475;53.558;9.970;2022-11-30T07:38:58;65.10;;;32.27;;
14766;SDS011;7475;53.558;9.970;2022-11-30T07:41:24;67.03;;;32.80;;
14766;SDS011;7475;53.558;9.970;2022-11-30T07:43:49;60.07;;;31.77;;
14766;SDS011;7475;53.558;9.970;2022-11-30T07:46:15;64.67;;;32.83;;
14766;SDS011;7475;53.558;9.970;2022-11-30T07:48:41;63.73;;;30.30;;
14766;SDS011;7475;53.558;9.970;2022-11-30T07:51:11;62.40;;;31.93;;
14766;SDS011;7475;53.558;9.970;2022-11-30T07:53:38;61.13;;;31.87;;
14766;SDS011;7475;53.558;9.970;2022-11-30T07:56:04;56.77;;;30.63;;
14766;SDS011;7475;53.558;9.970;2022-11-30T07:58:31;61.33;;;30.67;;
14766;SDS011;7475;53.558;9.970;2022-11-30T08:01:03;62.83;;;31.77;;
14766;SDS011;7475;53.558;9.970;2022-11-30T08:03:33;59.53;;;31.27;;
14766;SDS011;7475;53.558;9.970;2022-11-30T08:06:03;55.07;;;28.97;;
14766;SDS011;7475;53.558;9.970;2022-11-30T08:08:34;58.38;;;29.23;;
14766;SDS011;7475;53.558;9.970;2022-11-30T08:11:01;49.77;;;26.47;;
14766;SDS011;7475;53.558;9.970;2022-11-30T08:13:28;56.43;;;29.97;;
14766;SDS011;7475;53.558;9.970;2022-11-30T08:15:53;53.53;;;27.80;;
14766;SDS011;7475;53.558;9.970;2022-11-30T08:18:19;55.97;;;28.57;;
14766;SDS011;7475;53.558;9.970;2022-11-30T08:20:45;53.37;;;28.70;;
14766;SDS011;7475;53.558;9.970;2022-11-30T08:23:10;46.60;;;27.50;;
14766;SDS011;7475;53.558;9.970;2022-11-30T08:25:36;47.27;;;26.87;;
14766;SDS011;7475;53.558;9.970;2022-11-30T08:28:02;50.73;;;26.80;;
14766;SDS011;7475;53.558;9.970;2022-11-30T08:30:28;40.73;;;24.77;;
14766;SDS011;7475;53.558;9.970;2022-11-30T08:32:53;43.23;;;24.30;;
14766;SDS011;7475;53.558;9.970;2022-11-30T08:35:18;41.10;;;24.17;;
14766;SDS011;7475;53.558;9.970;2022-11-30T08:37:44;45.63;;;25.53;;
14766;SDS011;7475;53.558;9.970;2022-11-30T08:40:09;47.07;;;26.23;;
14766;SDS011;7475;53.558;9.970;2022-11-30T08:42:35;43.37;;;24.17;;
14766;SDS011;7475;53.558;9.970;2022-11-30T08:45:00;41.70;;;25.53;;
14766;SDS011;7475;53.558;9.970;2022-11-30T08:47:27;41.17;;;23.70;;
14766;SDS011;7475;53.558;9.970;2022-11-30T08:49:53;41.90;;;24.17;;
14766;SDS011;7475;53.558;9.970;2022-11-30T08:52:19;35.17;;;22.23;;
14766;SDS011;7475;53.558;9.970;2022-11-30T08:54:44;39.83;;;24.63;;
14766;SDS011;7475;53.558;9.970;2022-11-30T08:57:11;38.05;;;22.90;;
14766;SDS011;7475;53.558;9.970;2022-11-30T08:59:36;37.70;;;22.80;;
14766;SDS011;7475;53.558;9.970;2022-11-30T09:02:02;35.47;;;22.73;;
14766;SDS011;7475;53.558;9.970;2022-11-30T09:04:27;34.17;;;21.33;;
14766;SDS011;7475;53.558;9.970;2022-11-30T09:06:53;34.60;;;22.60;;
14766;SDS011;7475;53.558;9.970;2022-11-30T09:09:23;34.70;;;22.93;;
14766;SDS011;7475;53.558;9.970;2022-11-30T09:11:49;36.40;;;22.87;;
14766;SDS011;7475;53.558;9.970;2022-11-30T09:14:14;35.92;;;21.60;;
14766;SDS011;7475;53.558;9.970;2022-11-30T09:16:40;32.97;;;21.40;;
14766;SDS011;7475;53.558;9.970;2022-11-30T09:19:05;38.17;;;25.33;;
14766;SDS011;7475;53.558;9.970;2022-11-30T09:21:30;33.67;;;21.37;;
14766;SDS011;7475;53.558;9.970;2022-11-30T09:23:56;36.53;;;22.80;;
14766;SDS011;7475;53.558;9.970;2022-11-30T09:26:21;36.90;;;23.83;;
14766;SDS011;7475;53.558;9.970;2022-11-30T09:28:49;34.20;;;21.70;;
14766;SDS011;7475;53.558;9.970;2022-11-30T09:31:16;30.80;;;20.50;;
14766;SDS011;7475;53.558;9.970;2022-11-30T09:33:43;28.88;;;20.70;;
14766;SDS011;7475;53.558;9.970;2022-11-30T09:36:10;33.03;;;21.23;;
14766;SDS011;7475;53.558;9.970;2022-11-30T09:38:37;29.77;;;21.23;;
14766;SDS011;7475;53.558;9.970;2022-11-30T09:41:05;30.23;;;20.00;;
14766;SDS011;7475;53.558;9.970;2022-11-30T09:43:51;30.20;;;20.40;;
14766;SDS011;7475;53.558;9.970;2022-11-30T09:46:35;28.92;;;19.65;;
14766;SDS011;7475;53.558;9.970;2022-11-30T09:51:49;28.33;;;18.77;;
14766;SDS011;7475;53.558;9.970;2022-11-30T09:56:46;29.47;;;19.07;;
14766;SDS011;7475;53.558;9.970;2022-11-30T09:59:18;26.67;;;18.53;;
14766;SDS011;7475;53.558;9.970;2022-11-30T10:01:45;25.93;;;18.20;;
14766;SDS011;7475;53.558;9.970;2022-11-30T10:04:22;28.08;;;19.23;;
14766;SDS011;7475;53.558;9.970;2022-11-30T10:06:59;29.07;;;19.03;;
14766;SDS011;7475;53.558;9.970;2022-11-30T10:12:23;27.87;;;18.43;;
14766;SDS011;7475;53.558;9.970;2022-11-30T10:18:16;27.03;;;18.70;;
14766;SDS011;7475;53.558;9.970;2022-11-30T10:20:51;26.77;;;17.43;;
14766;SDS011;7475;53.558;9.970;2022-11-30T10:23:39;29.80;;;19.60;;
14766;SDS011;7475;53.558;9.970;2022-11-30T10:26:19;30.33;;;18.90;;
14766;SDS011;7475;53.558;9.970;2022-11-30T10:28:54;26.67;;;18.27;;
14766;SDS011;7475;53.558;9.970;2022-11-30T10:31:30;29.33;;;18.63;;
14766;SDS011;7475;53.558;9.970;2022-11-30T10:34:01;26.40;;;17.70;;
14766;SDS011;7475;53.558;9.970;2022-11-30T10:36:41;29.80;;;21.27;;
14766;SDS011;7475;53.558;9.970;2022-11-30T10:39:16;31.02;;;18.70;;
14766;SDS011;7475;53.558;9.970;2022-11-30T10:41:47;29.20;;;19.55;;
14766;SDS011;7475;53.558;9.970;2022-11-30T10:44:24;31.95;;;20.52;;
14766;SDS011;7475;53.558;9.970;2022-11-30T10:46:55;27.13;;;19.07;;
14766;SDS011;7475;53.558;9.970;2022-11-30T10:49:26;31.52;;;19.23;;
14766;SDS011;7475;53.558;9.970;2022-11-30T10:51:53;28.17;;;19.40;;
14766;SDS011;7475;53.558;9.970;2022-11-30T10:54:25;27.93;;;19.37;;
14766;SDS011;7475;53.558;9.970;2022-11-30T10:56:50;32.23;;;19.10;;
14766;SDS011;7475;53.558;9.970;2022-11-30T11:01:43;35.93;;;22.07;;
14766;SDS011;7475;53.558;9.970;2022-11-30T11:06:45;28.92;;;20.40;;
14766;SDS011;7475;53.558;9.970;2022-11-30T11:09:23;32.23;;;20.03;;
14766;SDS011;7475;53.558;9.970;2022-11-30T11:12:06;31.70;;;20.47;;
14766;SDS011;7475;53.558;9.970;2022-11-30T11:14:40;30.20;;;19.60;;
14766;SDS011;7475;53.558;9.970;2022-11-30T11:19:44;30.98;;;19.70;;
14766;SDS011;7475;53.558;9.970;2022-11-30T11:22:24;28.90;;;20.13;;
14766;SDS011;7475;53.558;9.970;2022-11-30T11:25:10;27.37;;;19.70;;
14766;SDS011;7475;53.558;9.970;2022-11-30T11:27:43;31.43;;;20.97;;
14766;SDS011;7475;53.558;9.970;2022-11-30T11:33:03;29.15;;;19.83;;
14766;SDS011;7475;53.558;9.970;2022-11-30T11:35:36;34.33;;;22.17;;
14766;SDS011;7475;53.558;9.970;2022-11-30T11:40:52;26.40;;;19.60;;
14766;SDS011;7475;53.558;9.970;2022-11-30T11:43:20;34.47;;;22.25;;
14766;SDS011;7475;53.558;9.970;2022-11-30T11:45:52;32.30;;;22.35;;
14766;SDS011;7475;53.558;9.970;2022-11-30T11:48:27;35.72;;;21.55;;
14766;SDS011;7475;53.558;9.970;2022-11-30T11:51:00;31.40;;;21.02;;
14766;SDS011;7475;53.558;9.970;2022-11-30T11:56:23;31.98;;;20.95;;
14766;SDS011;7475;53.558;9.970;2022-11-30T12:12:38;31.53;;;20.97;;
14766;SDS011;7475;53.558;9.970;2022-11-30T12:15:07;30.13;;;20.10;;
14766;SDS011;7475;53.558;9.970;2022-11-30T12:18:22;32.83;;;21.30;;
14766;SDS011;7475;53.558;9.970;2022-11-30T12:26:33;29.58;;;19.83;;
14766;SDS011;7475;53.558;9.970;2022-11-30T12:34:26;36.23;;;22.00;;
14766;SDS011;7475;53.558;9.970;2022-11-30T12:42:14;30.60;;;20.38;;
14766;SDS011;7475;53.558;9.970;2022-11-30T12:44:58;32.67;;;20.57;;
14766;SDS011;7475;53.558;9.970;2022-11-30T12:47:47;31.52;;;19.75;;
14766;SDS011;7475;53.558;9.970;2022-11-30T12:50:21;29.73;;;19.88;;
14766;SDS011;7475;53.558;9.970;2022-11-30T12:53:03;29.48;;;19.83;;
14766;SDS011;7475;53.558;9.970;2022-11-30T13:01:11;37.00;;;22.83;;
14766;SDS011;7475;53.558;9.970;2022-11-30T13:03:49;39.70;;;23.70;;
14766;SDS011;7475;53.558;9.970;2022-11-30T13:06:23;36.67;;;22.27;;
14766;SDS011;7475;53.558;9.970;2022-11-30T13:08:57;39.60;;;22.70;;
14766;SDS011;7475;53.558;9.970;2022-11-30T13:11:35;39.67;;;24.30;;
14766;SDS011;7475;53.558;9.970;2022-11-30T13:14:03;42.30;;;24.35;;
14766;SDS011;7475;53.558;9.970;2022-11-30T13:16:40;40.22;;;24.20;;
14766;SDS011;7475;53.558;9.970;2022-11-30T13:19:12;42.13;;;25.08;;
14766;SDS011;7475;53.558;9.970;2022-11-30T13:21:58;44.53;;;24.77;;
14766;SDS011;7475;53.558;9.970;2022-11-30T13:24:36;42.77;;;25.57;;
14766;SDS011;7475;53.558;9.970;2022-11-30T13:27:10;44.23;;;25.87;;
14766;SDS011;7475;53.558;9.970;2022-11-30T13:29:57;43.63;;;25.73;;
14766;SDS011;7475;53.558;9.970;2022-11-30T13:32:23;46.53;;;27.10;;
14766;SDS011;7475;53.558;9.970;2022-11-30T13:34:49;47.83;;;26.53;;
14766;SDS011;7475;53.558;9.970;2022-11-30T13:37:18;48.38;;;26.67;;
14766;SDS011;7475;53.558;9.970;2022-11-30T13:44:55;49.87;;;27.60;;
14766;SDS011;7475;53.558;9.970;2022-11-30T13:47:29;46.10;;;27.63;;
14766;SDS011;7475;53.558;9.970;2022-11-30T13:50:08;53.60;;;29.90;;
14766;SDS011;7475;53.558;9.970;2022-11-30T13:53:18;49.92;;;28.45;;
14766;SDS011;7475;53.558;9.970;2022-11-30T13:55:50;51.20;;;27.00;;
14766;SDS011;7475;53.558;9.970;2022-11-30T13:58:24;49.22;;;27.08;;
14766;SDS011;7475;53.558;9.970;2022-11-30T14:04:16;52.95;;;28.92;;
14766;SDS011;7475;53.558;9.970;2022-11-30T14:14:55;60.57;;;32.53;;
14766;SDS011;7475;53.558;9.970;2022-11-30T14:17:22;58.83;;;30.73;;
14766;SDS011;7475;53.558;9.970;2022-11-30T14:19:51;57.87;;;31.73;;
14766;SDS011;7475;53.558;9.970;2022-11-30T14:22:20;55.20;;;29.60;;
14766;SDS011;7475;53.558;9.970;2022-11-30T14:24:47;54.38;;;30.23;;
14766;SDS011;7475;53.558;9.970;2022-11-30T14:27:15;60.85;;;34.35;;
14766;SDS011;7475;53.558;9.970;2022-11-30T14:29:43;62.37;;;32.87;;
14766;SDS011;7475;53.558;9.970;2022-11-30T14:32:15;66.95;;;34.22;;
14766;SDS011;7475;53.558;9.970;2022-11-30T14:34:49;75.35;;;41.03;;
14766;SDS011;7475;53.558;9.970;2022-11-30T14:37:24;58.17;;;30.35;;
14766;SDS011;7475;53.558;9.970;2022-11-30T14:39:53;56.50;;;30.03;;
14766;SDS011;7475;53.558;9.970;2022-11-30T14:44:47;59.60;;;30.40;;
14766;SDS011;7475;53.558;9.970;2022-11-30T14:47:22;65.03;;;34.27;;
14766;SDS011;7475;53.558;9.970;2022-11-30T14:49:48;64.88;;;31.75;;
14766;SDS011;7475;53.558;9.970;2022-11-30T14:55:03;64.20;;;32.20;;
14766;SDS011;7475;53.558;9.970;2022-11-30T15:00:26;59.10;;;29.30;;
14766;SDS011;7475;53.558;9.970;2022-11-30T15:02:51;57.33;;;30.35;;
14766;SDS011;7475;53.558;9.970;2022-11-30T15:05:21;60.90;;;31.80;;
14766;SDS011;7475;53.558;9.970;2022-11-30T15:07:52;66.43;;;29.70;;
14766;SDS011;7475;53.558;9.970;2022-11-30T15:10:23;63.85;;;29.83;;
14766;SDS011;7475;53.558;9.970;2022-11-30T15:12:53;59.90;;;29.25;;
14766;SDS011;7475;53.558;9.970;2022-11-30T15:17:55;62.23;;;29.63;;
14766;SDS011;7475;53.558;9.970;2022-11-30T15:20:29;61.10;;;30.07;;
14766;SDS011;7475;53.558;9.970;2022-11-30T15:23:01;64.47;;;30.65;;
14766;SDS011;7475;53.558;9.970;2022-11-30T15:25:32;66.60;;;30.80;;
14766;SDS011;7475;53.558;9.970;2022-11-30T15:28:01;64.47;;;32.13;;
14766;SDS011;7475;53.558;9.970;2022-11-30T15:30:28;65.10;;;32.30;;
14766;SDS011;7475;53.558;9.970;2022-11-30T15:32:55;65.50;;;31.20;;
14766;SDS011;7475;53.558;9.970;2022-11-30T15:35:22;62.58;;;32.15;;
14766;SDS011;7475;53.558;9.970;2022-11-30T15:37:50;60.97;;;31.08;;
14766;SDS011;7475;53.558;9.970;2022-11-30T15:40:21;69.63;;;33.57;;
14766;SDS011;7475;53.558;9.970;2022-11-30T15:42:53;66.80;;;31.67;;
14766;SDS011;7475;53.558;9.970;2022-11-30T15:45:26;60.60;;;32.03;;
14766;SDS011;7475;53.558;9.970;2022-11-30T15:47:53;69.10;;;33.80;;
14766;SDS011;7475;53.558;9.970;2022-11-30T15:52:55;60.42;;;32.22;;
14766;SDS011;7475;53.558;9.970;2022-11-30T15:55:42;62.37;;;31.53;;
14766;SDS011;7475;53.558;9.970;2022-11-30T15:58:25;70.23;;;33.70;;
14766;SDS011;7475;53.558;9.970;2022-11-30T16:01:12;72.00;;;35.03;;
14766;SDS011;7475;53.558;9.970;2022-11-30T16:06:22;73.32;;;34.83;;
14766;SDS011;7475;53.558;9.970;2022-11-30T16:09:29;70.77;;;34.13;;
14766;SDS011;7475;53.558;9.970;2022-11-30T16:11:59;68.43;;;34.50;;
14766;SDS011;7475;53.558;9.970;2022-11-30T16:14:25;74.65;;;36.60;;
14766;SDS011;7475;53.558;9.970;2022-11-30T16:16:51;59.97;;;31.50;;
14766;SDS011;7475;53.558;9.970;2022-11-30T16:19:19;61.30;;;30.43;;
14766;SDS011;7475;53.558;9.970;2022-11-30T16:21:45;67.73;;;32.37;;
14766;SDS011;7475;53.558;9.970;2022-11-30T16:24:12;64.67;;;33.63;;
14766;SDS011;7475;53.558;9.970;2022-11-30T16:26:38;74.00;;;36.92;;
14766;SDS011;7475;53.558;9.970;2022-11-30T16:29:04;63.27;;;32.63;;
14766;SDS011;7475;53.558;9.970;2022-11-30T16:31:29;55.65;;;30.98;;